Joseph Collins

Olheiro - Manchester United
3 Dez 2028
Domingo
Processo

Personalidade

Adaptabilidade (2) Ambição (8) Controvérsia (4) Lealdade (7) Pressão (11) Profissionalismo (19) Espírito Esportivo (16) Temperamento (10)

Perfil

Estilo de Treinamento Democrático
Licença Nacional A
Determinação 15
Gestão de Pessoas 9
Motivação 13
Disciplina 9
Satisfação no Trabalho
100%
Fadiga
0%
Função Olheiro
Salário 57.8K p/s
Contrato 14.03.2029

Desempenho

Comportamento Bom
Eficácia do Treinamento
66%
Desenvolvimento do Jogador
40%
Prevenção de Lesões
75%
Implementação Tática
75%

Eventos Recentes

Participou de uma reunião de recrutamento agora
Participou de uma reunião de recrutamento agora
Participou de uma reunião de recrutamento agora
Recomendou um alvo de transferência agora
Avaliou um jogador agora
Avaliou um jogador agora
Avaliou um jogador 7d atrás
Avaliou um jogador 7d atrás

Monitorando agora

118
Jogador Clube Status Habilidade Confiança Observado Última observação Último voto
Christos Mouzakitis Hull City Ativo 143 / 146 40% 11 01.12.2028 -
Luca Williams-Barnett Walsall Ativo 130 / 132 40% 6 01.12.2028 -
André Miranda Porto Ativo 122 / 126 40% 1 01.12.2028 -
Curtis Jones Inter Ativo 164 / 162 40% 4 30.11.2028 -
Harrison Armstrong Ipswich Town Ativo 137 / 146 40% 9 30.11.2028 -
Estêvão Portsmouth Ativo 148 / 156 40% 9 30.11.2028 -
Jan Paul van Hecke Tottenham Ativo 168 / 167 40% 4 30.11.2028 -
Moisés Caicedo Chelsea Ativo 172 / 175 40% 2 30.11.2028 -
Diego León Rotherham United Ativo 122 / 131 40% 2 30.11.2028 -
Salvador Blopá Wolverhampton Ativo 124 / 129 40% 2 29.11.2028 -
Ryan McAidoo Oldham Athletic Ativo 132 / 132 40% 4 29.11.2028 -
Honest Ahanor Atalanta Ativo 142 / 148 40% 8 26.11.2028 -
Shea Lacey Crystal Palace Ativo 139 / 146 40% 5 26.11.2028 -
Ayyoub Bouaddi Stoke City Ativo 150 / 158 40% 5 26.11.2028 -
Ryan Kavuma-McQueen Accrington Stanley Ativo 128 / 132 40% 5 25.11.2028 -
Ibrahim Fullah Charlton Athletic Ativo 131 / 131 40% 8 25.11.2028 -
Geovany Quenda Watford Ativo 149 / 157 40% 4 24.11.2028 -
Riccardo Calafiori Burnley Ativo 168 / 166 40% 5 24.11.2028 -
Benjamin White Arsenal Ativo 160 / 162 40% 2 24.11.2028 -
Manu Koné AS Roma Ativo 170 / 170 40% 2 24.11.2028 -
Robinio Vaz Modena Ativo 126 / 131 40% 11 23.11.2028 -
Chris Rigg West Ham United Ativo 146 / 149 40% 10 23.11.2028 -
Ibrahim Mbaye Queens Park Rangers Ativo 138 / 147 40% 6 23.11.2028 -
Harry Gray Harrogate Town Ativo 138 / 138 40% 4 20.11.2028 -
Lisandro Piñero Banfield Ativo 122 / 131 40% 6 19.11.2028 -
Jan Bürger Northampton Town Ativo 121 / 126 40% 2 19.11.2028 -
Mateus Mané Burnley Ativo 146 / 153 40% 4 17.11.2028 -
Jay Robinson Everton Ativo 133 / 138 40% 5 17.11.2028 -
Rio Ngumoha Plymouth Argyle Ativo 146 / 154 40% 8 17.11.2028 -
Sean Steur Rotherham United Ativo 126 / 139 40% 6 15.11.2028 -
Romelle Donovan Brentford Ativo 134 / 141 40% 4 15.11.2028 -
Eduardo Fernandes Benfica Ativo 129 / 129 40% 1 15.11.2028 -
Sandro Tonali Tottenham Ativo 172 / 174 40% 4 11.11.2028 -
Trey Nyoni Rotherham United Ativo 143 / 151 40% 6 11.11.2028 -
Jarrad Branthwaite Everton Ativo 160 / 162 40% 2 11.11.2028 -
Benoît Badiashile Chelsea Ativo 166 / 164 40% 1 11.11.2028 -
Mikey Moore Stockport County Ativo 146 / 148 40% 7 09.11.2028 -
Ethan Nwaneri Arsenal Ativo 160 / 159 40% 5 09.11.2028 -
Babis Kostoulas Oxford United Ativo 148 / 149 40% 11 08.11.2028 -
Adrian Lahdo Empoli Ativo 134 / 136 40% 11 06.11.2028 -
Igor Tyjon Barrow AFC Ativo 121 / 125 40% 2 06.11.2028 -
Destiny Udogie Tottenham Ativo 164 / 162 40% 2 05.11.2028 -
Henrique Carmo Sochi Ativo 137 / 135 40% 7 02.11.2028 -
Alessandro Bastoni Inter Ativo 169 / 169 40% 1 01.11.2028 -
Martín Zubimendi Arsenal Ativo 168 / 166 40% 5 28.10.2028 -
Micky van de Ven Tottenham Ativo 165 / 163 40% 2 28.10.2028 -
Levi Colwill Chelsea Ativo 171 / 168 40% 4 21.10.2028 -
Khéphren Thuram Juventus Ativo 165 / 163 40% 3 21.10.2028 -
Ronan Kpakio AC Milan Ativo 128 / 134 40% 4 14.10.2028 -
Evan N'Dicka AS Roma Ativo 161 / 163 40% 3 12.10.2028 -
Louis Page Leicester City Ativo 138 / 140 40% 1 08.10.2028 -
Boubacar Kamara Aston Villa Ativo 172 / 167 40% 10 06.10.2028 -
Adam Wharton Crystal Palace Ativo 163 / 163 40% 3 06.10.2028 -
Warren Zaïre-Emery Arsenal Ativo 167 / 167 40% 1 05.10.2028 -
Gabriel Arsenal Ativo 179 / 172 40% 1 05.10.2028 -
Ousmane Diomande Nottingham Forest Ativo 169 / 163 40% 1 03.10.2028 -
Malick Thiaw Ipswich Town Ativo 164 / 164 40% 1 01.10.2028 -
Tino Livramento Newcastle United Ativo 169 / 168 40% 5 29.09.2028 -
Wesley Fofana Chelsea Ativo 177 / 174 40% 1 29.09.2028 -
Jurriën Timber Arsenal Ativo 172 / 169 40% 1 27.09.2028 -
Bremer Juventus Ativo 170 / 170 40% 1 23.09.2028 -
Dastan Sätpayev Sunderland Ativo 134 / 142 40% 1 19.09.2028 -
Myles Lewis-Skelly Arsenal Ativo 155 / 165 40% 2 15.09.2028 -
Alessandro Buongiorno Cagliari Ativo 161 / 164 40% 2 12.09.2028 -
Piero Hincapié Arsenal Ativo 162 / 164 40% 1 12.09.2028 -
Reece James Chelsea Ativo 177 / 179 40% 1 09.09.2028 -
Otto Stange Borussia Mönchengladbach Ativo 132 / 139 40% 6 22.08.2028 -
Axel Tape Bayer Leverkusen Ativo 138 / 143 40% 1 22.08.2028 -
Jannik Vestergaard Brighton Relatório pronto 129 / 130 83% 1 21.08.2028 -
Andrija Maksimović VfL Wolfsburg Ativo 138 / 140 40% 2 19.08.2028 -
Suleman Sani Werder Bremen Ativo 141 / 141 40% 2 18.08.2028 -
Kerim Alajbegović Modena Ativo 138 / 142 40% 1 14.08.2028 -
Alphadjo Cissé Lecce Ativo 137 / 139 40% 1 09.08.2028 -
Samuel Edozie Southampton Perdido 136 / 138 83% 1 24.07.2028 -
Christopher Nkunku AC Milan Perdido 163 / 162 40% 1 05.07.2028 -
Joelinton Everton Perdido 160 / 158 40% 1 05.07.2028 -
Bukayo Saka Arsenal Perdido 188 / 184 83% 1 03.07.2028 -
Alex Scott Bournemouth Ativo 154 / 157 40% 2 22.06.2028 -
Archie Gray Southampton Ativo 152 / 154 40% 1 22.06.2028 -
Max Johnston Derby County Ativo 135 / 134 40% 1 22.06.2028 -
Giovanni Leoni Lincoln City Ativo 145 / 148 40% 1 19.06.2028 -
Miguel Figueiredo Benfica Perdido 118 / 131 40% 1 19.06.2028 -
Bade Aluko Leicester City Perdido 118 / 125 40% 1 19.06.2028 -
Dejan Kulusevski Tottenham Ativo 175 / 174 40% 4 07.06.2028 -
Christian Pulisic AC Milan Perdido 169 / 164 40% 2 07.06.2028 -
Martin Ødegaard Arsenal Perdido 185 / 179 40% 1 07.06.2028 -
Rodrigo Gomes Wolverhampton Ativo 145 / 150 40% 1 05.06.2028 -
Aune Heggebø West Bromwich Albion Relatório pronto 135 / 135 83% 1 02.06.2028 -
Óscar Mingueza Crystal Palace Ativo 153 / 151 40% 2 31.05.2028 -
Gabriel Martinelli Arsenal Ativo 166 / 163 40% 1 31.05.2028 -
Sascha Britschgi AC Milan Ativo 126 / 129 40% 1 26.07.2027 -
Mateus Mané Burnley Perdido 131 / 144 40% 1 26.07.2027 -
Mohamed-Ali Cho Hull City Ativo 139 / 136 76% 1 05.07.2027 Aprovar
Sven Botman Newcastle United Ativo 160 / 163 40% 1 14.06.2027 -
Pierre Kalulu Juventus Ativo 156 / 152 40% 1 14.06.2027 -
Xavi Simons Tottenham Ativo 156 / 156 40% 4 31.05.2027 -
João Pedro Chelsea Ativo 156 / 152 40% 1 30.05.2027 -
Noni Madueke Arsenal Ativo 161 / 156 40% 2 27.05.2027 -
Ismaïla Sarr Crystal Palace Ativo 159 / 147 40% 3 27.05.2027 -
Elia Caprile Cagliari Ativo 146 / 145 40% 3 26.05.2027 -
Anthony Patterson Wrexham Ativo 131 / 133 40% 2 26.05.2027 -
Joseph Leclercq Tottenham Ativo 161 / 157 40% 2 25.05.2027 -
Marvin Keller Chelsea Ativo 139 / 149 40% 1 25.05.2027 Mais informações
Robin Roefs Sunderland Ativo 150 / 151 40% 2 17.05.2027 -
Mads Hermansen West Ham United Ativo 140 / 138 40% 4 16.05.2027 -
Oliver Dovin Coventry City Ativo 125 / 130 40% 3 13.05.2027 -
Luis Ingolotti Atlético Tucumán Ativo 135 / 122 40% 1 13.05.2027 -
Yeremy Pino Crystal Palace Ativo 144 / 147 40% 2 10.05.2027 -
James Trafford Leeds United Ativo 145 / 144 40% 2 06.05.2027 -
Mile Svilar AS Roma Ativo 165 / 162 40% 5 06.05.2027 -
Oufa Shobeir MC Alger Ativo 117 / 128 40% 1 29.04.2027 -
James Maddison Tottenham Ativo 160 / 153 40% 2 28.04.2027 -
Melker Ellborg Sunderland Ativo 124 / 129 40% 1 08.04.2027 -
Zion Suzuki Aston Villa Ativo 149 / 142 40% 1 31.03.2027 -
Stanislav Agkatsev Brentford Ativo 144 / 136 40% 1 26.03.2027 Mais informações
Ivor Pandur Hull City Ativo 132 / 121 40% 2 25.03.2027 -
Grégoire Coudert Burnley Ativo 124 / 132 40% 1 25.03.2027 -
Mike Maignan AC Milan Ativo 159 / 166 40% 1 31.12.2026 -